Aérodrome :
LOGIN :

S'inscrire | Disclaimer

   EN    FR    IT 

 










Légende :    VFR   VFR Marginal   IFR   IFR Intensif   IFR Très Intensif
Visi : 
Plafond : 
>= 8 km
>= 3000ft
5 à 8 km
1000 à 3000 ft
1500m à 5 km
500 à 1000 ft
800 à 1500m
200 à 500 ft
< 800m
< 200 ft
Symboles :   Orages  Brouillard  Fortes neiges  Fortes précipitations  Vent > 20 kt
SIGMETs :   Divers  Orages  Givrage  Turbulence  Onde Orograph.  Cendres Volcan.






- Altitude de l'aérodrome : 34 ft
- Code IATA : BLK


EGNH - Blackpool

DERNIER METAR :
  • 241820Z 29024G35KT 9999 VCSH SCT038 07/04 Q1000

METARs EXPIRÉS :
  • 241750Z 28024G34KT 9999 VCSH SCT041 07/04 Q1000
  • 241720Z 29027G37KT 9999 VCSH SCT041 08/04 Q1000
  • 241650Z 28025KT 9999 SCT029 07/04 Q0999
  • 241620Z 28026KT 9999 -RA SCT028 07/04 Q0999
  • 241550Z 28029G42KT 9999 SCT031 07/05 Q0999
  • 241520Z 28029KT 9999 VCSH SCT026 08/05 Q0998

TAF TAF EGNH
Valide du 24 à 18h jusqu'au 24 à 21h UTC


241700Z 2418/2421 26022G32KT 9999 FEW012 SCT020
TEMPO 2418/2421 27033G43KT
PROB40
TEMPO 2418/2421 7000 SHRA BKN012
ATIS : +44 1253 343 434 (x8315)



MET'MAP, la Météo Aéronautique d'un coup d'oeil ! - Copyright ORBIFLY Décembre 2007 - Disclaimer

ORBIFLY MET'MAP TEAM :

Programmation & Développement : Alexandra Zaïnal
Sur une idée originale de : Baudouin d'Aumeries
Assistance à la programmation : Marc-Olivier Méhu
Soutien technique & logistique : Manuel Goepfert

Contact : metmap@orbifly.com




SOURCES & CREDITS :

   NOAA